sensor_id;sensor_type;location;lat;lon;timestamp;P1;durP1;ratioP1;P2;durP2;ratioP2
37303;SDS011;23188;51.188;16.374;2023-04-25T00:03:54;1.20;;;1.10;;
37303;SDS011;23188;51.188;16.374;2023-04-25T00:07:58;1.80;;;1.60;;
37303;SDS011;23188;51.188;16.374;2023-04-25T00:12:01;2.60;;;1.70;;
37303;SDS011;23188;51.188;16.374;2023-04-25T00:16:04;4.20;;;2.80;;
37303;SDS011;23188;51.188;16.374;2023-04-25T00:20:09;4.50;;;3.00;;
37303;SDS011;23188;51.188;16.374;2023-04-25T00:24:13;7.70;;;4.00;;
37303;SDS011;23188;51.188;16.374;2023-04-25T00:28:17;6.70;;;4.30;;
37303;SDS011;23188;51.188;16.374;2023-04-25T00:32:20;6.50;;;3.70;;
37303;SDS011;23188;51.188;16.374;2023-04-25T00:36:23;4.50;;;3.20;;
37303;SDS011;23188;51.188;16.374;2023-04-25T00:40:26;10.50;;;6.70;;
37303;SDS011;23188;51.188;16.374;2023-04-25T00:44:30;6.00;;;4.20;;
37303;SDS011;23188;51.188;16.374;2023-04-25T00:48:35;3.90;;;3.50;;
37303;SDS011;23188;51.188;16.374;2023-04-25T00:52:38;3.80;;;3.20;;
37303;SDS011;23188;51.188;16.374;2023-04-25T00:56:44;6.90;;;3.10;;
37303;SDS011;23188;51.188;16.374;2023-04-25T01:00:48;3.30;;;1.90;;
37303;SDS011;23188;51.188;16.374;2023-04-25T01:04:53;3.60;;;2.20;;
37303;SDS011;23188;51.188;16.374;2023-04-25T01:08:56;4.60;;;2.80;;
37303;SDS011;23188;51.188;16.374;2023-04-25T01:13:00;4.10;;;3.20;;
37303;SDS011;23188;51.188;16.374;2023-04-25T01:17:03;3.60;;;1.90;;
37303;SDS011;23188;51.188;16.374;2023-04-25T01:21:07;2.60;;;2.20;;
37303;SDS011;23188;51.188;16.374;2023-04-25T01:25:13;4.00;;;2.90;;
37303;SDS011;23188;51.188;16.374;2023-04-25T01:29:17;4.60;;;3.20;;
37303;SDS011;23188;51.188;16.374;2023-04-25T01:33:21;3.00;;;2.10;;
37303;SDS011;23188;51.188;16.374;2023-04-25T01:37:24;6.50;;;2.80;;
37303;SDS011;23188;51.188;16.374;2023-04-25T01:41:28;3.30;;;3.00;;
37303;SDS011;23188;51.188;16.374;2023-04-25T01:45:31;4.50;;;3.50;;
37303;SDS011;23188;51.188;16.374;2023-04-25T01:49:35;3.00;;;2.60;;
37303;SDS011;23188;51.188;16.374;2023-04-25T01:53:39;4.80;;;3.10;;
37303;SDS011;23188;51.188;16.374;2023-04-25T01:57:42;6.20;;;3.00;;
37303;SDS011;23188;51.188;16.374;2023-04-25T02:01:45;8.00;;;3.90;;
37303;SDS011;23188;51.188;16.374;2023-04-25T02:05:48;5.30;;;3.40;;
37303;SDS011;23188;51.188;16.374;2023-04-25T02:09:52;7.50;;;3.50;;
37303;SDS011;23188;51.188;16.374;2023-04-25T02:13:55;6.50;;;4.10;;
37303;SDS011;23188;51.188;16.374;2023-04-25T02:17:58;4.60;;;3.60;;
37303;SDS011;23188;51.188;16.374;2023-04-25T02:22:03;6.40;;;4.00;;
37303;SDS011;23188;51.188;16.374;2023-04-25T02:26:06;3.50;;;3.10;;
37303;SDS011;23188;51.188;16.374;2023-04-25T02:30:09;5.70;;;3.20;;
37303;SDS011;23188;51.188;16.374;2023-04-25T02:34:13;4.50;;;3.70;;
37303;SDS011;23188;51.188;16.374;2023-04-25T02:38:16;4.70;;;3.80;;
37303;SDS011;23188;51.188;16.374;2023-04-25T02:42:19;4.90;;;3.30;;
37303;SDS011;23188;51.188;16.374;2023-04-25T02:46:22;6.10;;;4.30;;
37303;SDS011;23188;51.188;16.374;2023-04-25T02:50:40;8.80;;;5.30;;
37303;SDS011;23188;51.188;16.374;2023-04-25T02:54:43;5.60;;;4.70;;
37303;SDS011;23188;51.188;16.374;2023-04-25T02:58:46;4.00;;;3.70;;
37303;SDS011;23188;51.188;16.374;2023-04-25T03:02:50;4.90;;;4.10;;
37303;SDS011;23188;51.188;16.374;2023-04-25T03:06:56;7.60;;;4.60;;
37303;SDS011;23188;51.188;16.374;2023-04-25T03:11:00;5.70;;;4.70;;
37303;SDS011;23188;51.188;16.374;2023-04-25T03:15:03;6.30;;;3.50;;
37303;SDS011;23188;51.188;16.374;2023-04-25T03:19:08;9.00;;;5.30;;
37303;SDS011;23188;51.188;16.374;2023-04-25T03:23:13;11.00;;;5.00;;
37303;SDS011;23188;51.188;16.374;2023-04-25T03:27:19;5.10;;;4.30;;
37303;SDS011;23188;51.188;16.374;2023-04-25T03:31:24;4.10;;;3.40;;
37303;SDS011;23188;51.188;16.374;2023-04-25T03:35:29;7.00;;;4.40;;
37303;SDS011;23188;51.188;16.374;2023-04-25T03:39:35;5.50;;;4.00;;
37303;SDS011;23188;51.188;16.374;2023-04-25T03:43:38;6.90;;;4.40;;
37303;SDS011;23188;51.188;16.374;2023-04-25T03:47:42;6.00;;;4.80;;
37303;SDS011;23188;51.188;16.374;2023-04-25T03:51:45;3.80;;;3.30;;
37303;SDS011;23188;51.188;16.374;2023-04-25T03:55:49;6.90;;;5.00;;
37303;SDS011;23188;51.188;16.374;2023-04-25T03:59:53;5.20;;;4.60;;
37303;SDS011;23188;51.188;16.374;2023-04-25T04:03:57;7.40;;;4.40;;
37303;SDS011;23188;51.188;16.374;2023-04-25T04:08:01;7.20;;;5.60;;
37303;SDS011;23188;51.188;16.374;2023-04-25T04:12:04;5.00;;;4.50;;
37303;SDS011;23188;51.188;16.374;2023-04-25T04:16:07;3.80;;;3.40;;
37303;SDS011;23188;51.188;16.374;2023-04-25T04:20:11;6.70;;;4.20;;
37303;SDS011;23188;51.188;16.374;2023-04-25T04:24:14;7.40;;;5.30;;
37303;SDS011;23188;51.188;16.374;2023-04-25T04:28:19;6.10;;;4.60;;
37303;SDS011;23188;51.188;16.374;2023-04-25T04:32:23;4.10;;;3.30;;
37303;SDS011;23188;51.188;16.374;2023-04-25T04:36:28;6.80;;;4.40;;
37303;SDS011;23188;51.188;16.374;2023-04-25T04:40:31;8.20;;;5.50;;
37303;SDS011;23188;51.188;16.374;2023-04-25T04:44:35;6.70;;;4.70;;
37303;SDS011;23188;51.188;16.374;2023-04-25T04:48:39;4.00;;;3.60;;
37303;SDS011;23188;51.188;16.374;2023-04-25T04:52:42;6.80;;;4.90;;
37303;SDS011;23188;51.188;16.374;2023-04-25T04:56:46;7.40;;;5.80;;
37303;SDS011;23188;51.188;16.374;2023-04-25T05:00:49;7.80;;;5.60;;
37303;SDS011;23188;51.188;16.374;2023-04-25T05:04:53;5.60;;;4.00;;
37303;SDS011;23188;51.188;16.374;2023-04-25T05:08:57;4.30;;;3.80;;
37303;SDS011;23188;51.188;16.374;2023-04-25T05:13:00;5.00;;;4.60;;
37303;SDS011;23188;51.188;16.374;2023-04-25T05:17:04;6.10;;;4.60;;
37303;SDS011;23188;51.188;16.374;2023-04-25T05:21:11;8.00;;;6.00;;
37303;SDS011;23188;51.188;16.374;2023-04-25T05:25:14;8.80;;;4.00;;
37303;SDS011;23188;51.188;16.374;2023-04-25T05:29:17;6.90;;;5.70;;
37303;SDS011;23188;51.188;16.374;2023-04-25T05:33:20;5.50;;;4.20;;
37303;SDS011;23188;51.188;16.374;2023-04-25T05:37:23;17.50;;;6.90;;
37303;SDS011;23188;51.188;16.374;2023-04-25T05:41:27;12.90;;;6.00;;
37303;SDS011;23188;51.188;16.374;2023-04-25T05:45:30;8.90;;;6.20;;
37303;SDS011;23188;51.188;16.374;2023-04-25T05:49:34;9.40;;;5.90;;
37303;SDS011;23188;51.188;16.374;2023-04-25T05:53:37;5.90;;;5.30;;
37303;SDS011;23188;51.188;16.374;2023-04-25T05:57:40;11.90;;;8.40;;
37303;SDS011;23188;51.188;16.374;2023-04-25T06:01:45;6.20;;;5.10;;
37303;SDS011;23188;51.188;16.374;2023-04-25T06:05:49;8.10;;;6.00;;
37303;SDS011;23188;51.188;16.374;2023-04-25T06:09:53;8.90;;;5.60;;
37303;SDS011;23188;51.188;16.374;2023-04-25T06:13:56;9.80;;;6.90;;
37303;SDS011;23188;51.188;16.374;2023-04-25T06:17:59;6.60;;;5.00;;
37303;SDS011;23188;51.188;16.374;2023-04-25T06:22:02;9.00;;;7.00;;
37303;SDS011;23188;51.188;16.374;2023-04-25T06:26:06;14.10;;;7.00;;
37303;SDS011;23188;51.188;16.374;2023-04-25T06:30:09;6.20;;;5.50;;
37303;SDS011;23188;51.188;16.374;2023-04-25T06:34:14;8.70;;;6.40;;
37303;SDS011;23188;51.188;16.374;2023-04-25T06:38:18;6.00;;;4.90;;
37303;SDS011;23188;51.188;16.374;2023-04-25T06:42:21;9.90;;;5.60;;
37303;SDS011;23188;51.188;16.374;2023-04-25T06:46:24;7.80;;;7.00;;
37303;SDS011;23188;51.188;16.374;2023-04-25T06:50:28;7.00;;;5.60;;
37303;SDS011;23188;51.188;16.374;2023-04-25T06:54:31;9.40;;;7.00;;
37303;SDS011;23188;51.188;16.374;2023-04-25T06:58:35;18.50;;;10.60;;
37303;SDS011;23188;51.188;16.374;2023-04-25T07:02:38;23.50;;;15.70;;
37303;SDS011;23188;51.188;16.374;2023-04-25T07:06:42;13.90;;;7.80;;
37303;SDS011;23188;51.188;16.374;2023-04-25T07:10:45;7.40;;;6.20;;
37303;SDS011;23188;51.188;16.374;2023-04-25T07:14:51;11.00;;;7.10;;
37303;SDS011;23188;51.188;16.374;2023-04-25T07:18:54;13.70;;;7.40;;
37303;SDS011;23188;51.188;16.374;2023-04-25T07:22:58;9.10;;;7.10;;
37303;SDS011;23188;51.188;16.374;2023-04-25T07:27:01;10.70;;;7.20;;
37303;SDS011;23188;51.188;16.374;2023-04-25T07:31:05;8.50;;;6.50;;
37303;SDS011;23188;51.188;16.374;2023-04-25T07:35:08;10.90;;;5.80;;
37303;SDS011;23188;51.188;16.374;2023-04-25T07:39:12;13.30;;;7.00;;
37303;SDS011;23188;51.188;16.374;2023-04-25T07:43:15;10.00;;;7.60;;
37303;SDS011;23188;51.188;16.374;2023-04-25T07:47:19;8.50;;;6.50;;
37303;SDS011;23188;51.188;16.374;2023-04-25T07:51:23;15.10;;;8.80;;
37303;SDS011;23188;51.188;16.374;2023-04-25T07:55:26;7.80;;;6.20;;
37303;SDS011;23188;51.188;16.374;2023-04-25T07:59:30;12.10;;;7.60;;
37303;SDS011;23188;51.188;16.374;2023-04-25T08:03:33;6.30;;;5.60;;
37303;SDS011;23188;51.188;16.374;2023-04-25T08:07:37;10.80;;;8.00;;
37303;SDS011;23188;51.188;16.374;2023-04-25T08:11:41;10.00;;;6.60;;
37303;SDS011;23188;51.188;16.374;2023-04-25T08:15:45;15.30;;;8.00;;
37303;SDS011;23188;51.188;16.374;2023-04-25T08:19:48;11.10;;;6.80;;
37303;SDS011;23188;51.188;16.374;2023-04-25T08:23:52;10.80;;;6.80;;
37303;SDS011;23188;51.188;16.374;2023-04-25T08:27:55;5.50;;;4.60;;
37303;SDS011;23188;51.188;16.374;2023-04-25T08:31:59;5.90;;;4.20;;
37303;SDS011;23188;51.188;16.374;2023-04-25T08:36:03;5.90;;;3.90;;
37303;SDS011;23188;51.188;16.374;2023-04-25T08:40:07;4.20;;;3.80;;
37303;SDS011;23188;51.188;16.374;2023-04-25T08:44:17;5.00;;;4.40;;
37303;SDS011;23188;51.188;16.374;2023-04-25T08:48:20;4.90;;;3.50;;
37303;SDS011;23188;51.188;16.374;2023-04-25T08:52:24;7.90;;;6.80;;
37303;SDS011;23188;51.188;16.374;2023-04-25T08:56:33;10.70;;;4.40;;
37303;SDS011;23188;51.188;16.374;2023-04-25T09:00:38;6.20;;;4.70;;
37303;SDS011;23188;51.188;16.374;2023-04-25T09:04:43;7.00;;;4.60;;
37303;SDS011;23188;51.188;16.374;2023-04-25T09:08:49;5.50;;;3.80;;
37303;SDS011;23188;51.188;16.374;2023-04-25T09:13:03;8.60;;;4.90;;
37303;SDS011;23188;51.188;16.374;2023-04-25T09:17:07;6.30;;;4.30;;
37303;SDS011;23188;51.188;16.374;2023-04-25T09:21:11;5.70;;;2.70;;
37303;SDS011;23188;51.188;16.374;2023-04-25T09:25:16;4.80;;;3.30;;
37303;SDS011;23188;51.188;16.374;2023-04-25T09:29:20;5.80;;;2.50;;
37303;SDS011;23188;51.188;16.374;2023-04-25T09:33:32;4.40;;;2.40;;
37303;SDS011;23188;51.188;16.374;2023-04-25T09:37:40;3.20;;;2.70;;
37303;SDS011;23188;51.188;16.374;2023-04-25T09:41:43;3.10;;;1.90;;
37303;SDS011;23188;51.188;16.374;2023-04-25T09:45:48;6.20;;;3.00;;
37303;SDS011;23188;51.188;16.374;2023-04-25T09:49:54;2.00;;;1.70;;
37303;SDS011;23188;51.188;16.374;2023-04-25T09:53:58;3.70;;;2.50;;
37303;SDS011;23188;51.188;16.374;2023-04-25T09:58:03;2.50;;;2.10;;
37303;SDS011;23188;51.188;16.374;2023-04-25T10:02:12;8.80;;;2.30;;
37303;SDS011;23188;51.188;16.374;2023-04-25T10:06:19;2.10;;;1.90;;
37303;SDS011;23188;51.188;16.374;2023-04-25T10:10:25;2.50;;;1.90;;
37303;SDS011;23188;51.188;16.374;2023-04-25T10:14:34;2.30;;;1.70;;
37303;SDS011;23188;51.188;16.374;2023-04-25T10:18:38;3.00;;;1.80;;
37303;SDS011;23188;51.188;16.374;2023-04-25T10:22:42;7.00;;;2.80;;
37303;SDS011;23188;51.188;16.374;2023-04-25T10:26:48;2.40;;;2.00;;
37303;SDS011;23188;51.188;16.374;2023-04-25T10:30:56;2.70;;;1.50;;
37303;SDS011;23188;51.188;16.374;2023-04-25T10:35:11;2.50;;;1.60;;
37303;SDS011;23188;51.188;16.374;2023-04-25T10:39:21;2.30;;;1.60;;
37303;SDS011;23188;51.188;16.374;2023-04-25T10:43:37;4.20;;;2.50;;
37303;SDS011;23188;51.188;16.374;2023-04-25T10:47:44;8.10;;;2.00;;
37303;SDS011;23188;51.188;16.374;2023-04-25T10:51:47;3.20;;;1.90;;
37303;SDS011;23188;51.188;16.374;2023-04-25T10:55:57;2.50;;;2.20;;
37303;SDS011;23188;51.188;16.374;2023-04-25T11:00:05;4.40;;;2.20;;
37303;SDS011;23188;51.188;16.374;2023-04-25T11:04:20;3.30;;;1.80;;
37303;SDS011;23188;51.188;16.374;2023-04-25T11:08:33;6.70;;;1.90;;
37303;SDS011;23188;51.188;16.374;2023-04-25T11:12:50;1.30;;;1.20;;
37303;SDS011;23188;51.188;16.374;2023-04-25T11:16:54;4.00;;;1.20;;
37303;SDS011;23188;51.188;16.374;2023-04-25T11:21:03;2.50;;;1.90;;
37303;SDS011;23188;51.188;16.374;2023-04-25T11:25:09;3.70;;;2.80;;
37303;SDS011;23188;51.188;16.374;2023-04-25T11:29:14;3.50;;;2.20;;
37303;SDS011;23188;51.188;16.374;2023-04-25T11:33:17;3.30;;;2.00;;
37303;SDS011;23188;51.188;16.374;2023-04-25T11:37:25;3.20;;;2.20;;
37303;SDS011;23188;51.188;16.374;2023-04-25T11:41:29;3.10;;;2.10;;
37303;SDS011;23188;51.188;16.374;2023-04-25T11:45:33;2.40;;;2.20;;
37303;SDS011;23188;51.188;16.374;2023-04-25T11:49:36;2.50;;;2.30;;
37303;SDS011;23188;51.188;16.374;2023-04-25T11:53:44;6.80;;;2.60;;
37303;SDS011;23188;51.188;16.374;2023-04-25T11:57:48;4.20;;;2.00;;
37303;SDS011;23188;51.188;16.374;2023-04-25T12:01:54;4.20;;;2.40;;
37303;SDS011;23188;51.188;16.374;2023-04-25T12:06:02;5.10;;;2.90;;
37303;SDS011;23188;51.188;16.374;2023-04-25T12:10:07;11.80;;;3.30;;
37303;SDS011;23188;51.188;16.374;2023-04-25T12:14:12;4.10;;;2.10;;
37303;SDS011;23188;51.188;16.374;2023-04-25T12:18:30;1.70;;;1.60;;
37303;SDS011;23188;51.188;16.374;2023-04-25T12:22:33;1.90;;;1.50;;
37303;SDS011;23188;51.188;16.374;2023-04-25T12:26:50;6.00;;;2.30;;
37303;SDS011;23188;51.188;16.374;2023-04-25T12:31:02;4.20;;;2.10;;
37303;SDS011;23188;51.188;16.374;2023-04-25T12:35:07;2.60;;;2.00;;
37303;SDS011;23188;51.188;16.374;2023-04-25T12:39:14;3.10;;;2.00;;
37303;SDS011;23188;51.188;16.374;2023-04-25T12:43:24;8.50;;;2.10;;
37303;SDS011;23188;51.188;16.374;2023-04-25T12:47:28;1.40;;;1.30;;
37303;SDS011;23188;51.188;16.374;2023-04-25T12:51:31;2.40;;;2.20;;
37303;SDS011;23188;51.188;16.374;2023-04-25T12:55:35;2.30;;;1.70;;
37303;SDS011;23188;51.188;16.374;2023-04-25T12:59:38;3.30;;;1.90;;
37303;SDS011;23188;51.188;16.374;2023-04-25T13:03:42;1.70;;;1.60;;
37303;SDS011;23188;51.188;16.374;2023-04-25T13:07:45;6.00;;;2.20;;
37303;SDS011;23188;51.188;16.374;2023-04-25T13:11:48;6.30;;;2.30;;
37303;SDS011;23188;51.188;16.374;2023-04-25T13:15:51;2.90;;;1.10;;
37303;SDS011;23188;51.188;16.374;2023-04-25T13:19:54;4.50;;;2.40;;
37303;SDS011;23188;51.188;16.374;2023-04-25T13:23:57;4.30;;;2.00;;
37303;SDS011;23188;51.188;16.374;2023-04-25T13:28:01;2.90;;;2.00;;
37303;SDS011;23188;51.188;16.374;2023-04-25T13:32:04;5.10;;;2.40;;
37303;SDS011;23188;51.188;16.374;2023-04-25T13:36:08;4.50;;;2.20;;
37303;SDS011;23188;51.188;16.374;2023-04-25T13:40:11;2.90;;;1.90;;
37303;SDS011;23188;51.188;16.374;2023-04-25T13:44:15;2.80;;;2.20;;
37303;SDS011;23188;51.188;16.374;2023-04-25T13:48:20;3.10;;;2.00;;
37303;SDS011;23188;51.188;16.374;2023-04-25T13:52:27;3.50;;;1.40;;
37303;SDS011;23188;51.188;16.374;2023-04-25T13:57:00;5.30;;;1.40;;
37303;SDS011;23188;51.188;16.374;2023-04-25T14:01:06;2.20;;;1.20;;
37303;SDS011;23188;51.188;16.374;2023-04-25T14:05:09;3.80;;;1.80;;
37303;SDS011;23188;51.188;16.374;2023-04-25T14:09:14;4.30;;;2.10;;
37303;SDS011;23188;51.188;16.374;2023-04-25T14:13:18;7.30;;;3.10;;
37303;SDS011;23188;51.188;16.374;2023-04-25T14:17:22;4.60;;;2.60;;
37303;SDS011;23188;51.188;16.374;2023-04-25T14:21:27;7.50;;;4.00;;
37303;SDS011;23188;51.188;16.374;2023-04-25T14:25:32;5.10;;;2.90;;
37303;SDS011;23188;51.188;16.374;2023-04-25T14:29:35;1.60;;;1.50;;
37303;SDS011;23188;51.188;16.374;2023-04-25T14:33:39;3.00;;;1.50;;
37303;SDS011;23188;51.188;16.374;2023-04-25T14:37:45;3.10;;;1.70;;
37303;SDS011;23188;51.188;16.374;2023-04-25T14:41:48;3.20;;;2.50;;
37303;SDS011;23188;51.188;16.374;2023-04-25T14:45:52;3.10;;;1.60;;
37303;SDS011;23188;51.188;16.374;2023-04-25T14:49:59;2.80;;;2.10;;
37303;SDS011;23188;51.188;16.374;2023-04-25T14:54:04;2.10;;;1.80;;
37303;SDS011;23188;51.188;16.374;2023-04-25T14:58:07;3.40;;;2.00;;
37303;SDS011;23188;51.188;16.374;2023-04-25T15:02:11;5.00;;;3.00;;
37303;SDS011;23188;51.188;16.374;2023-04-25T15:06:14;3.50;;;2.30;;
37303;SDS011;23188;51.188;16.374;2023-04-25T15:10:18;5.80;;;4.00;;
37303;SDS011;23188;51.188;16.374;2023-04-25T15:14:22;5.50;;;3.20;;
37303;SDS011;23188;51.188;16.374;2023-04-25T15:18:26;2.90;;;1.90;;
37303;SDS011;23188;51.188;16.374;2023-04-25T15:22:30;4.10;;;2.50;;
37303;SDS011;23188;51.188;16.374;2023-04-25T15:26:33;4.70;;;2.40;;
37303;SDS011;23188;51.188;16.374;2023-04-25T15:30:38;2.80;;;2.20;;
37303;SDS011;23188;51.188;16.374;2023-04-25T15:34:41;3.40;;;2.80;;
37303;SDS011;23188;51.188;16.374;2023-04-25T15:38:46;4.40;;;3.00;;
37303;SDS011;23188;51.188;16.374;2023-04-25T15:42:51;11.20;;;2.20;;
37303;SDS011;23188;51.188;16.374;2023-04-25T15:46:54;3.00;;;1.90;;
37303;SDS011;23188;51.188;16.374;2023-04-25T15:50:58;3.20;;;2.60;;
37303;SDS011;23188;51.188;16.374;2023-04-25T15:55:01;4.40;;;3.10;;
37303;SDS011;23188;51.188;16.374;2023-04-25T15:59:06;3.60;;;2.90;;
37303;SDS011;23188;51.188;16.374;2023-04-25T16:03:09;7.70;;;3.70;;
37303;SDS011;23188;51.188;16.374;2023-04-25T16:07:13;7.90;;;4.70;;
37303;SDS011;23188;51.188;16.374;2023-04-25T16:11:17;4.60;;;2.40;;
37303;SDS011;23188;51.188;16.374;2023-04-25T16:15:21;3.90;;;2.30;;
37303;SDS011;23188;51.188;16.374;2023-04-25T16:19:24;7.10;;;3.30;;
37303;SDS011;23188;51.188;16.374;2023-04-25T16:23:28;6.60;;;3.30;;
37303;SDS011;23188;51.188;16.374;2023-04-25T16:27:31;9.90;;;4.70;;
37303;SDS011;23188;51.188;16.374;2023-04-25T16:31:41;3.80;;;2.80;;
37303;SDS011;23188;51.188;16.374;2023-04-25T16:35:45;13.40;;;4.20;;
37303;SDS011;23188;51.188;16.374;2023-04-25T16:39:48;6.10;;;3.80;;
37303;SDS011;23188;51.188;16.374;2023-04-25T16:43:52;11.10;;;4.40;;
37303;SDS011;23188;51.188;16.374;2023-04-25T16:47:56;7.50;;;3.10;;
37303;SDS011;23188;51.188;16.374;2023-04-25T16:51:59;10.00;;;5.10;;
37303;SDS011;23188;51.188;16.374;2023-04-25T16:56:03;6.60;;;4.10;;
37303;SDS011;23188;51.188;16.374;2023-04-25T17:00:06;8.70;;;4.70;;
37303;SDS011;23188;51.188;16.374;2023-04-25T17:04:12;8.30;;;5.00;;
37303;SDS011;23188;51.188;16.374;2023-04-25T17:08:15;11.90;;;4.80;;
37303;SDS011;23188;51.188;16.374;2023-04-25T17:12:19;10.90;;;6.40;;
37303;SDS011;23188;51.188;16.374;2023-04-25T17:16:27;8.50;;;5.00;;
37303;SDS011;23188;51.188;16.374;2023-04-25T17:20:36;13.40;;;5.90;;
37303;SDS011;23188;51.188;16.374;2023-04-25T17:24:40;10.00;;;5.70;;
37303;SDS011;23188;51.188;16.374;2023-04-25T17:28:43;17.70;;;6.50;;
37303;SDS011;23188;51.188;16.374;2023-04-25T17:32:51;9.40;;;4.40;;
37303;SDS011;23188;51.188;16.374;2023-04-25T17:36:54;8.20;;;4.70;;
37303;SDS011;23188;51.188;16.374;2023-04-25T17:40:57;13.10;;;5.00;;
37303;SDS011;23188;51.188;16.374;2023-04-25T17:45:00;10.70;;;5.50;;
37303;SDS011;23188;51.188;16.374;2023-04-25T17:49:03;13.20;;;6.80;;
37303;SDS011;23188;51.188;16.374;2023-04-25T17:53:07;8.30;;;5.10;;
37303;SDS011;23188;51.188;16.374;2023-04-25T17:57:10;14.70;;;6.60;;
37303;SDS011;23188;51.188;16.374;2023-04-25T18:01:14;19.50;;;6.00;;
37303;SDS011;23188;51.188;16.374;2023-04-25T18:05:17;12.40;;;4.90;;
37303;SDS011;23188;51.188;16.374;2023-04-25T18:09:21;13.80;;;6.40;;
37303;SDS011;23188;51.188;16.374;2023-04-25T18:13:25;7.70;;;5.20;;
37303;SDS011;23188;51.188;16.374;2023-04-25T18:17:28;12.50;;;6.20;;
37303;SDS011;23188;51.188;16.374;2023-04-25T18:21:31;10.70;;;5.50;;
37303;SDS011;23188;51.188;16.374;2023-04-25T18:25:34;13.10;;;5.80;;
37303;SDS011;23188;51.188;16.374;2023-04-25T18:29:38;12.80;;;6.70;;
37303;SDS011;23188;51.188;16.374;2023-04-25T18:33:44;9.50;;;4.50;;
37303;SDS011;23188;51.188;16.374;2023-04-25T18:37:47;14.20;;;5.30;;
37303;SDS011;23188;51.188;16.374;2023-04-25T18:41:51;7.10;;;4.00;;
37303;SDS011;23188;51.188;16.374;2023-04-25T18:46:02;8.00;;;4.60;;
37303;SDS011;23188;51.188;16.374;2023-04-25T18:50:06;7.80;;;5.40;;
37303;SDS011;23188;51.188;16.374;2023-04-25T18:54:27;16.40;;;7.80;;
37303;SDS011;23188;51.188;16.374;2023-04-25T18:58:30;9.40;;;6.60;;
37303;SDS011;23188;51.188;16.374;2023-04-25T19:02:34;9.20;;;7.00;;
37303;SDS011;23188;51.188;16.374;2023-04-25T19:06:38;18.20;;;7.90;;
37303;SDS011;23188;51.188;16.374;2023-04-25T19:10:41;7.30;;;4.90;;
37303;SDS011;23188;51.188;16.374;2023-04-25T19:14:44;15.30;;;7.50;;
37303;SDS011;23188;51.188;16.374;2023-04-25T19:18:47;16.80;;;6.40;;
37303;SDS011;23188;51.188;16.374;2023-04-25T19:22:57;14.00;;;8.40;;
37303;SDS011;23188;51.188;16.374;2023-04-25T19:27:00;11.70;;;5.70;;
37303;SDS011;23188;51.188;16.374;2023-04-25T19:31:04;17.90;;;7.30;;
37303;SDS011;23188;51.188;16.374;2023-04-25T19:35:07;11.60;;;7.20;;
37303;SDS011;23188;51.188;16.374;2023-04-25T19:39:13;16.30;;;8.40;;
37303;SDS011;23188;51.188;16.374;2023-04-25T19:43:17;12.50;;;8.00;;
37303;SDS011;23188;51.188;16.374;2023-04-25T19:47:20;14.40;;;9.60;;
37303;SDS011;23188;51.188;16.374;2023-04-25T19:51:23;14.80;;;8.40;;
37303;SDS011;23188;51.188;16.374;2023-04-25T19:55:28;18.30;;;7.70;;
37303;SDS011;23188;51.188;16.374;2023-04-25T19:59:31;17.90;;;9.10;;
37303;SDS011;23188;51.188;16.374;2023-04-25T20:03:34;19.90;;;12.00;;
37303;SDS011;23188;51.188;16.374;2023-04-25T20:07:51;14.80;;;9.30;;
37303;SDS011;23188;51.188;16.374;2023-04-25T20:11:55;12.30;;;6.50;;
37303;SDS011;23188;51.188;16.374;2023-04-25T20:15:57;14.40;;;7.60;;
37303;SDS011;23188;51.188;16.374;2023-04-25T20:20:04;14.50;;;8.40;;
37303;SDS011;23188;51.188;16.374;2023-04-25T20:24:08;13.60;;;6.80;;
37303;SDS011;23188;51.188;16.374;2023-04-25T20:28:12;17.30;;;7.40;;
37303;SDS011;23188;51.188;16.374;2023-04-25T20:32:16;18.00;;;7.40;;
37303;SDS011;23188;51.188;16.374;2023-04-25T20:36:19;9.40;;;6.00;;
37303;SDS011;23188;51.188;16.374;2023-04-25T20:40:21;13.30;;;8.20;;
37303;SDS011;23188;51.188;16.374;2023-04-25T20:44:24;8.80;;;5.10;;
37303;SDS011;23188;51.188;16.374;2023-04-25T20:48:28;9.20;;;5.90;;
37303;SDS011;23188;51.188;16.374;2023-04-25T20:52:31;8.10;;;5.40;;
37303;SDS011;23188;51.188;16.374;2023-04-25T20:56:34;17.50;;;7.20;;
37303;SDS011;23188;51.188;16.374;2023-04-25T21:00:37;9.70;;;5.60;;
37303;SDS011;23188;51.188;16.374;2023-04-25T21:09:12;14.60;;;8.40;;
37303;SDS011;23188;51.188;16.374;2023-04-25T21:17:50;15.70;;;10.40;;
37303;SDS011;23188;51.188;16.374;2023-04-25T21:21:53;12.50;;;9.30;;
37303;SDS011;23188;51.188;16.374;2023-04-25T21:25:58;24.30;;;10.10;;
37303;SDS011;23188;51.188;16.374;2023-04-25T21:30:02;19.80;;;11.00;;
37303;SDS011;23188;51.188;16.374;2023-04-25T21:34:18;17.70;;;8.00;;
37303;SDS011;23188;51.188;16.374;2023-04-25T21:38:21;11.70;;;8.50;;
37303;SDS011;23188;51.188;16.374;2023-04-25T21:42:23;17.30;;;8.30;;
37303;SDS011;23188;51.188;16.374;2023-04-25T21:46:26;15.80;;;7.10;;
37303;SDS011;23188;51.188;16.374;2023-04-25T21:50:46;17.50;;;7.70;;
37303;SDS011;23188;51.188;16.374;2023-04-25T21:54:48;16.50;;;8.50;;
37303;SDS011;23188;51.188;16.374;2023-04-25T21:58:52;22.30;;;8.60;;
37303;SDS011;23188;51.188;16.374;2023-04-25T22:02:55;11.20;;;6.30;;
37303;SDS011;23188;51.188;16.374;2023-04-25T22:07:03;9.80;;;6.30;;
37303;SDS011;23188;51.188;16.374;2023-04-25T22:11:06;11.70;;;6.40;;
37303;SDS011;23188;51.188;16.374;2023-04-25T22:15:09;12.40;;;7.00;;
37303;SDS011;23188;51.188;16.374;2023-04-25T22:19:17;14.70;;;6.70;;
37303;SDS011;23188;51.188;16.374;2023-04-25T22:23:20;10.80;;;6.70;;
37303;SDS011;23188;51.188;16.374;2023-04-25T22:27:24;9.70;;;6.10;;
37303;SDS011;23188;51.188;16.374;2023-04-25T22:31:29;21.40;;;7.50;;
37303;SDS011;23188;51.188;16.374;2023-04-25T22:35:31;11.50;;;6.40;;
37303;SDS011;23188;51.188;16.374;2023-04-25T22:39:35;12.60;;;6.60;;
37303;SDS011;23188;51.188;16.374;2023-04-25T22:43:40;17.30;;;7.60;;
37303;SDS011;23188;51.188;16.374;2023-04-25T22:47:43;15.20;;;6.80;;
37303;SDS011;23188;51.188;16.374;2023-04-25T23:08:35;15.40;;;6.70;;
37303;SDS011;23188;51.188;16.374;2023-04-25T23:12:39;14.80;;;8.40;;
37303;SDS011;23188;51.188;16.374;2023-04-25T23:16:41;10.60;;;6.00;;
37303;SDS011;23188;51.188;16.374;2023-04-25T23:20:44;16.10;;;6.70;;
37303;SDS011;23188;51.188;16.374;2023-04-25T23:24:48;14.00;;;6.50;;
37303;SDS011;23188;51.188;16.374;2023-04-25T23:28:57;17.10;;;7.20;;
37303;SDS011;23188;51.188;16.374;2023-04-25T23:32:58;36.70;;;9.10;;
37303;SDS011;23188;51.188;16.374;2023-04-25T23:41:42;19.20;;;8.30;;
37303;SDS011;23188;51.188;16.374;2023-04-25T23:45:44;9.10;;;5.90;;
37303;SDS011;23188;51.188;16.374;2023-04-25T23:49:47;12.00;;;7.50;;
37303;SDS011;23188;51.188;16.374;2023-04-25T23:53:49;12.90;;;8.40;;
37303;SDS011;23188;51.188;16.374;2023-04-25T23:57:51;13.90;;;6.90;;
